Time;durP1;ratioP1;P1;durP2;ratioP2;P2;SDS_P1;SDS_P2;PMS_P1;PMS_P2;Temp;Humidity;BMP_temperature;BMP_pressure;BME280_temperature;BME280_humidity;BME280_pressure;Samples;Min_cycle;Max_cycle;Signal;HPM_P1;HPM_P2
2021/07/15 00:01:05;;;;;;;36.25;25.48;;;;;;;20.70;92.79;101102.88;4783801;29;20127;-37
2021/07/15 00:03:32;;;;;;;33.13;24.30;;;;;;;20.41;94.54;101104.06;4778164;29;20050;-37
2021/07/15 00:05:59;;;;;;;34.40;25.23;;;;;;;20.55;94.21;101099.56;4776223;29;20151;-37
2021/07/15 00:08:27;;;;;;;34.13;25.45;;;;;;;20.75;93.17;101102.25;4765668;29;20137;-37
2021/07/15 00:11:00;;;;;;;32.40;24.45;;;;;;;20.78;93.24;101093.00;4781678;29;20121;-37
2021/07/15 00:13:27;;;;;;;32.97;22.98;;;;;;;20.65;92.96;101084.00;4781104;29;20136;-37
2021/07/15 00:15:56;;;;;;;33.95;22.33;;;;;;;20.63;93.30;101087.91;4778241;29;20141;-37
2021/07/15 00:18:28;;;;;;;31.88;21.48;;;;;;;20.73;92.77;101102.44;4785527;29;20051;-36
2021/07/15 00:20:57;;;;;;;37.25;21.63;;;;;;;20.60;93.70;101097.16;4787656;29;20953;-36
2021/07/15 00:23:24;;;;;;;37.63;22.23;;;;;;;20.60;94.05;101097.16;4785690;29;20553;-36
2021/07/15 00:25:51;;;;;;;30.25;20.98;;;;;;;20.53;93.79;101089.09;4780613;29;20157;-36
2021/07/15 00:28:18;;;;;;;30.73;19.25;;;;;;;20.43;94.86;101090.56;4793385;29;20059;-36
2021/07/15 00:30:46;;;;;;;26.20;19.50;;;;;;;20.40;94.54;101080.31;4777327;29;20073;-36
2021/07/15 00:33:13;;;;;;;24.90;18.47;;;;;;;20.30;96.18;101094.84;4778218;29;20445;-36
2021/07/15 00:35:40;;;;;;;23.17;18.35;;;;;;;20.48;95.19;101090.75;4777084;29;20321;-36
2021/07/15 00:38:08;;;;;;;28.33;19.60;;;;;;;20.41;96.44;101088.09;4783671;29;20593;-36
2021/07/15 00:40:36;;;;;;;23.98;17.42;;;;;;;20.46;95.15;101090.94;4778641;29;20059;-36
2021/07/15 00:43:03;;;;;;;29.77;18.23;;;;;;;20.59;94.82;101084.00;4782141;29;20145;-36
2021/07/15 00:45:30;;;;;;;27.52;17.33;;;;;;;20.61;93.66;101082.78;4778591;29;20162;-36
2021/07/15 00:47:57;;;;;;;22.98;16.25;;;;;;;20.51;93.79;101090.34;4778100;29;20453;-36
2021/07/15 00:50:25;;;;;;;26.00;18.27;;;;;;;20.49;94.38;101079.88;4783690;29;20055;-45
2021/07/15 00:52:52;;;;;;;27.25;18.70;;;;;;;20.20;95.83;101077.63;4775629;29;20128;-36
2021/07/15 00:55:28;;;;;;;30.63;18.98;;;;;;;20.25;95.82;101076.00;4783325;29;20059;-36
2021/07/15 00:57:55;;;;;;;24.25;17.40;;;;;;;20.37;95.33;101094.84;4787480;29;20126;-37
2021/07/15 01:00:23;;;;;;;26.58;18.52;;;;;;;20.34;94.37;101096.06;4771919;29;20150;-37
2021/07/15 01:02:51;;;;;;;31.08;20.38;;;;;;;20.20;94.87;101097.09;4774203;29;20889;-37
2021/07/15 01:05:20;;;;;;;31.42;20.75;;;;;;;20.33;95.08;101104.28;4782075;29;20576;-37
2021/07/15 01:07:47;;;;;;;32.85;21.85;;;;;;;20.24;95.70;101094.84;4783080;29;20190;-37
2021/07/15 01:10:16;;;;;;;38.20;23.88;;;;;;;20.21;95.87;101098.75;4788893;29;20175;-37
2021/07/15 01:13:06;;;;;;;38.53;24.55;;;;;;;20.31;94.71;101082.38;4779384;29;20055;-37
2021/07/15 01:15:55;;;;;;;36.10;24.42;;;;;;;20.33;94.39;101091.78;4767754;29;20422;-37
2021/07/15 01:18:41;;;;;;;38.42;25.08;;;;;;;20.25;94.42;101094.66;4780258;29;20054;-37
2021/07/15 01:21:45;;;;;;;34.67;23.60;;;;;;;20.33;94.25;101091.78;4774672;29;20047;-37
2021/07/15 01:24:42;;;;;;;41.13;24.85;;;;;;;20.15;94.00;101089.72;4765314;29;20450;-37
2021/07/15 01:27:27;;;;;;;35.95;23.50;;;;;;;19.86;97.52;101090.91;4768047;29;20387;-37
2021/07/15 01:30:05;;;;;;;28.38;19.73;;;;;;;20.20;95.84;101097.09;4776945;29;20054;-37
2021/07/15 01:32:38;;;;;;;29.33;19.83;;;;;;;20.27;94.27;101097.13;4774210;29;20054;-36
2021/07/15 01:35:07;;;;;;;28.67;20.70;;;;;;;20.29;94.04;101097.72;4780437;29;20142;-37
2021/07/15 01:37:34;;;;;;;29.40;19.40;;;;;;;20.17;94.63;101099.34;4774822;29;20058;-37
2021/07/15 01:40:03;;;;;;;28.63;19.75;;;;;;;20.32;94.23;101095.44;4789248;29;20058;-37
2021/07/15 01:42:31;;;;;;;30.33;20.50;;;;;;;20.34;93.13;101109.38;4773328;29;20534;-37
2021/07/15 01:44:58;;;;;;;26.88;18.80;;;;;;;20.35;93.01;101110.22;4790306;29;20145;-37
2021/07/15 01:47:27;;;;;;;25.60;18.08;;;;;;;20.40;92.46;101097.09;4778371;29;20049;-37
2021/07/15 01:49:58;;;;;;;25.40;17.50;;;;;;;20.04;94.18;101092.16;4778498;29;20058;-37
2021/07/15 01:52:26;;;;;;;28.83;18.98;;;;;;;20.01;95.36;101095.22;4778787;29;20417;-37
2021/07/15 01:54:53;;;;;;;;;;;;;;;20.20;94.63;101105.06;4772739;29;20062;-37
2021/07/15 01:57:21;;;;;;;29.83;19.50;;;;;;;20.18;94.23;101101.00;4777748;29;19931;-37
2021/07/15 01:59:50;;;;;;;26.40;18.20;;;;;;;19.89;95.02;101100.31;4768240;29;20059;-37
2021/07/15 02:02:18;;;;;;;34.65;21.85;;;;;;;19.72;97.10;101102.53;4781986;29;20058;-37
2021/07/15 02:04:53;;;;;;;37.45;22.08;;;;;;;20.00;95.38;101106.91;4774556;29;20111;-37
2021/07/15 02:07:21;;;;;;;37.28;23.17;;;;;;;20.12;94.52;101110.59;4777147;29;20137;-37
2021/07/15 02:09:50;;;;;;;34.95;21.50;;;;;;;20.11;93.93;101112.47;4769243;29;20090;-38
2021/07/15 02:12:19;;;;;;;40.08;23.23;;;;;;;20.14;93.71;101103.22;4761462;29;20047;-37
2021/07/15 02:14:50;;;;;;;45.22;25.48;;;;;;;19.90;95.59;101107.28;4777023;29;20123;-37
2021/07/15 02:17:18;;;;;;;46.70;24.48;;;;;;;19.91;96.34;101100.94;4768013;29;20445;-37
2021/07/15 02:19:46;;;;;;;41.83;24.90;;;;;;;20.01;95.39;101113.84;4770803;29;22275;-37
2021/07/15 02:22:13;;;;;;;34.72;22.48;;;;;;;20.09;94.19;101106.50;4763257;29;20065;-37
2021/07/15 02:24:41;;;;;;;45.35;25.25;;;;;;;20.13;nan;101105.09;4773636;29;20051;-37
2021/07/15 02:27:09;;;;;;;37.55;22.38;;;;;;;20.35;92.53;101097.72;4769170;29;20059;-37
2021/07/15 02:29:36;;;;;;;46.95;23.98;;;;;;;20.41;91.91;101103.28;4774364;29;20910;-38
2021/07/15 02:32:08;;;;;;;42.38;24.00;;;;;;;20.36;91.76;101098.53;4775178;29;20517;-37
2021/07/15 02:35:00;;;;;;;49.33;25.88;;;;;;;20.45;91.88;101096.50;4771667;29;20620;-37
2021/07/15 02:37:31;;;;;;;36.38;21.85;;;;;;;20.49;91.03;101109.19;4776485;29;20650;-37
2021/07/15 02:39:58;;;;;;;40.70;22.90;;;;;;;20.36;91.75;101106.53;4767958;29;20531;-38
2021/07/15 02:42:24;;;;;;;40.63;23.60;;;;;;;20.49;91.03;101103.88;4775741;29;20141;-37
2021/07/15 02:44:55;;;;;;;38.90;24.63;;;;;;;20.46;90.66;101106.13;4769410;29;20050;-37
2021/07/15 02:47:22;;;;;;;39.33;21.97;;;;;;;20.49;90.22;101098.53;4775388;29;20236;-38
2021/07/15 02:49:48;;;;;;;44.97;23.25;;;;;;;20.57;90.11;101112.69;4764244;29;20765;-38
2021/07/15 02:52:16;;;;;;;42.50;23.83;;;;;;;20.03;93.12;101117.13;4773214;29;20519;-38
2021/07/15 02:54:42;;;;;;;44.73;23.37;;;;;;;19.90;95.27;101120.59;4769877;29;20066;-38
2021/07/15 02:57:23;;;;;;;39.92;22.95;;;;;;;20.12;93.32;101116.75;4776595;29;20402;-38
2021/07/15 03:00:19;;;;;;;36.53;22.08;;;;;;;20.37;91.54;101115.34;4772286;29;20061;-37
2021/07/15 03:03:05;;;;;;;35.70;21.63;;;;;;;20.34;91.78;101111.25;4781887;29;20110;-37
2021/07/15 03:05:41;;;;;;;34.03;20.25;;;;;;;20.24;92.18;101124.94;4765856;29;21043;-37
2021/07/15 03:08:17;;;;;;;31.50;18.10;;;;;;;20.31;91.02;101119.66;4773846;29;20065;-38
2021/07/15 03:10:46;;;;;;;32.40;18.58;;;;;;;20.29;90.58;101117.19;4780818;29;20155;-38
2021/07/15 03:13:14;;;;;;;29.00;18.52;;;;;;;19.92;93.07;101113.22;4774970;29;20153;-38
2021/07/15 03:15:42;;;;;;;26.83;17.10;;;;;;;19.73;94.89;101112.16;4777858;29;20054;-38
2021/07/15 03:18:11;;;;;;;31.63;17.00;;;;;;;19.70;95.81;101123.19;4760321;29;20579;-38
2021/07/15 03:20:41;;;;;;;27.45;16.67;;;;;;;19.92;93.99;101115.91;4778778;29;20106;-38
2021/07/15 03:23:12;;;;;;;25.58;17.30;;;;;;;19.74;95.20;101116.47;4772899;29;20139;-38
2021/07/15 03:25:43;;;;;;;25.63;16.23;;;;;;;19.92;93.50;101129.22;4777041;29;20059;-38
2021/07/15 03:28:12;;;;;;;24.27;15.75;;;;;;;19.77;94.73;101124.03;4780959;29;20581;-38
2021/07/15 03:30:39;;;;;;;25.33;16.35;;;;;;;20.00;93.41;101128.19;4772427;29;20131;-38
2021/07/15 03:33:06;;;;;;;22.70;15.45;;;;;;;20.19;92.64;101129.25;4791803;29;20089;-38
2021/07/15 03:35:33;;;;;;;18.13;12.57;;;;;;;20.15;91.92;101131.53;4774635;29;20120;-38
2021/07/15 03:38:03;;;;;;;20.77;13.55;;;;;;;19.89;92.39;101135.72;4782802;29;20085;-38
2021/07/15 03:40:29;;;;;;;18.48;11.98;;;;;;;19.99;92.78;101130.03;4771425;29;20062;-37
2021/07/15 03:42:57;;;;;;;16.83;11.55;;;;;;;20.15;91.88;101136.84;4772897;29;20058;-38
2021/07/15 03:45:25;;;;;;;16.38;10.43;;;;;;;20.09;91.64;101132.31;4777281;29;20483;-38
2021/07/15 03:47:57;;;;;;;16.33;11.70;;;;;;;20.19;91.52;101132.75;4765437;29;20051;-38
2021/07/15 03:50:27;;;;;;;17.02;11.98;;;;;;;20.24;90.79;101135.59;4780418;29;20082;-38
2021/07/15 03:52:58;;;;;;;21.48;12.85;;;;;;;20.22;91.13;101148.31;4777759;29;20043;-38
2021/07/15 03:55:28;;;;;;;18.45;11.90;;;;;;;19.78;92.42;101143.47;4785048;29;20829;-38
2021/07/15 03:57:56;;;;;;;17.33;10.75;;;;;;;20.15;91.80;101139.50;4771037;29;20050;-38
2021/07/15 04:00:23;;;;;;;;;;;;;;;20.27;90.58;101145.06;4784389;29;20055;-37
2021/07/15 04:03:00;;;;;;;16.65;11.57;;;;;;;20.12;90.25;101129.25;4784049;29;19925;-37
2021/07/15 04:05:29;;;;;;;17.52;11.50;;;;;;;20.08;91.91;101130.69;4780737;29;20059;-37
2021/07/15 04:07:59;;;;;;;18.85;11.90;;;;;;;20.12;90.87;101127.41;4783868;29;20062;-37
2021/07/15 04:10:28;;;;;;;17.73;11.60;;;;;;;20.05;91.58;101131.91;4783189;29;21466;-37
2021/07/15 04:12:57;;;;;;;20.73;11.70;;;;;;;19.79;93.59;101137.97;4779477;29;20104;-37
2021/07/15 04:15:51;;;;;;;18.50;11.95;;;;;;;19.93;92.39;101139.66;4775690;29;20113;-36
2021/07/15 04:18:21;;;;;;;16.90;10.93;;;;;;;20.05;91.49;101149.69;4779525;29;20054;-37
2021/07/15 04:20:48;;;;;;;15.65;10.18;;;;;;;20.02;92.05;101144.78;4776976;29;20150;-36
2021/07/15 04:23:18;;;;;;;17.92;10.27;;;;;;;19.87;93.43;101145.75;4782638;29;20063;-36
2021/07/15 04:25:51;;;;;;;14.57;10.02;;;;;;;19.97;93.05;101140.06;4769201;29;20454;-36
2021/07/15 04:28:19;;;;;;;19.52;10.57;;;;;;;19.90;94.03;101148.03;4778863;29;20491;-36
2021/07/15 04:30:51;;;;;;;12.50;8.40;;;;;;;20.01;92.48;101145.81;4780675;29;20162;-36
2021/07/15 04:33:18;;;;;;;12.95;8.32;;;;;;;19.66;95.07;101152.03;4782262;29;20158;-36
2021/07/15 04:35:47;;;;;;;14.80;8.80;;;;;;;19.47;97.03;101160.72;4778919;29;20662;-37
2021/07/15 04:38:14;;;;;;;17.50;8.05;;;;;;;19.61;96.23;101167.75;4771793;29;20440;-37
2021/07/15 04:40:40;;;;;;;14.45;8.07;;;;;;;19.79;94.78;101175.22;4774672;29;20154;-37
2021/07/15 04:43:09;;;;;;;16.67;8.38;;;;;;;20.01;93.70;101172.44;4770431;29;20063;-37
2021/07/15 04:45:39;;;;;;;14.50;9.10;;;;;;;19.98;92.60;101170.19;4780224;29;20702;-37
2021/07/15 04:48:10;;;;;;;15.73;8.80;;;;;;;19.73;93.61;101182.16;4766597;29;20150;-37
2021/07/15 04:50:38;;;;;;;15.73;9.63;;;;;;;19.74;95.15;101178.50;4774875;29;20070;-37
2021/07/15 04:53:07;;;;;;;16.90;11.13;;;;;;;20.01;93.48;101173.25;4768467;29;20464;-37
2021/07/15 04:55:34;;;;;;;18.17;11.35;;;;;;;20.08;92.32;101168.78;4773743;29;20141;-37
2021/07/15 04:58:02;;;;;;;22.75;12.55;;;;;;;20.08;91.91;101163.44;4781778;29;20059;-37
2021/07/15 05:00:29;;;;;;;25.90;13.52;;;;;;;20.13;92.23;101171.66;4778654;29;20488;-37
2021/07/15 05:03:17;;;;;;;22.15;13.40;;;;;;;20.22;91.60;101169.63;4786580;29;20162;-37
2021/07/15 05:05:44;;;;;;;26.95;14.82;;;;;;;19.84;93.55;101167.47;4773024;29;20165;-37
2021/07/15 05:08:10;;;;;;;25.85;14.45;;;;;;;19.65;95.26;101173.50;4780528;29;20062;-37
2021/07/15 05:10:37;;;;;;;29.20;15.95;;;;;;;19.54;96.32;101178.38;4775500;29;20133;-36
2021/07/15 05:13:04;;;;;;;31.25;16.98;;;;;;;19.38;98.27;101175.19;4776765;29;20150;-36
2021/07/15 05:15:30;;;;;;;27.77;15.88;;;;;;;19.39;97.47;101185.66;4781580;29;20157;-36
2021/07/15 05:17:57;;;;;;;28.45;15.25;;;;;;;19.66;96.62;101185.78;4774327;29;20101;-36
2021/07/15 05:20:24;;;;;;;30.83;16.45;;;;;;;19.90;94.86;101181.84;4765422;29;20051;-36
2021/07/15 05:22:50;;;;;;;27.83;16.98;;;;;;;20.01;93.86;101186.56;4786417;29;20061;-36
2021/07/15 05:25:17;;;;;;;35.55;17.05;;;;;;;20.24;92.15;101191.53;4785333;29;20065;-36
2021/07/15 05:27:43;;;;;;;31.85;18.08;;;;;;;19.99;94.13;101190.44;4771423;29;20055;-36
2021/07/15 05:30:10;;;;;;;36.92;19.20;;;;;;;19.59;96.47;101187.59;4780092;29;20463;-36
2021/07/15 05:32:37;;;;;;;34.92;17.25;;;;;;;19.61;96.87;101196.19;4778681;29;20207;-36
2021/07/15 05:35:04;;;;;;;30.85;17.17;;;;;;;19.52;97.12;101200.84;4771256;29;20083;-36
2021/07/15 05:37:31;;;;;;;31.88;16.90;;;;;;;19.51;98.20;101213.34;4774350;29;20062;-36
2021/07/15 05:39:57;;;;;;;33.10;18.33;;;;;;;19.93;95.95;101203.56;4768229;29;20062;-37
2021/07/15 05:42:24;;;;;;;37.40;18.38;;;;;;;20.23;92.96;101207.72;4759209;29;20051;-37
2021/07/15 05:44:50;;;;;;;37.53;18.25;;;;;;;20.01;93.73;101210.53;4768991;29;20060;-37
2021/07/15 05:47:16;;;;;;;35.22;18.85;;;;;;;20.08;92.78;101206.06;4777883;29;20149;-37
2021/07/15 05:49:44;;;;;;;31.92;17.30;;;;;;;19.78;94.50;101210.84;4783747;29;20388;-37
2021/07/15 05:52:12;;;;;;;30.73;17.00;;;;;;;19.75;95.39;101217.38;4776091;29;20082;-37
2021/07/15 05:54:39;;;;;;;37.13;20.50;;;;;;;20.16;92.93;101215.69;4791120;29;20054;-36
2021/07/15 05:57:06;;;;;;;46.38;23.88;;;;;;;20.34;92.33;101221.28;4780683;29;23358;-37
2021/07/15 05:59:33;;;;;;;40.72;21.77;;;;;;;19.71;94.44;101218.78;4780927;29;20485;-37
2021/07/15 06:02:00;;;;;;;43.20;22.15;;;;;;;19.74;95.34;101221.06;4774973;29;20046;-37
2021/07/15 06:04:28;;;;;;;51.47;24.58;;;;;;;19.90;94.38;101219.09;4774563;29;26149;-37
2021/07/15 06:06:54;;;;;;;39.92;21.45;;;;;;;20.17;92.82;101219.19;4780570;29;20579;-37
2021/07/15 06:09:21;;;;;;;53.70;25.65;;;;;;;20.31;91.06;101221.69;4776352;29;20561;-37
2021/07/15 06:11:47;;;;;;;55.60;25.30;;;;;;;20.26;91.30;101221.47;4780404;29;20063;-38
2021/07/15 06:14:14;;;;;;;55.78;25.98;;;;;;;20.10;92.49;101230.63;4775502;29;20059;-37
2021/07/15 06:16:40;;;;;;;43.83;24.38;;;;;;;20.09;92.58;101229.00;4779848;29;20526;-38
2021/07/15 06:19:07;;;;;;;43.63;24.48;;;;;;;20.09;92.96;101231.66;4773453;29;20147;-37
2021/07/15 06:21:33;;;;;;;52.75;24.60;;;;;;;20.23;92.29;101229.03;4779232;29;20840;-37
2021/07/15 06:23:59;;;;;;;49.95;24.10;;;;;;;20.34;91.50;101244.44;4781952;29;20056;-37
2021/07/15 06:26:26;;;;;;;40.55;22.23;;;;;;;20.43;90.61;101231.78;4777349;29;20107;-37
2021/07/15 06:28:52;;;;;;;48.83;24.60;;;;;;;20.49;89.99;101241.63;4785477;29;20149;-37
2021/07/15 06:31:19;;;;;;;46.22;24.25;;;;;;;20.61;89.14;101244.53;4766408;29;20131;-37
2021/07/15 06:33:45;;;;;;;50.75;25.10;;;;;;;20.11;91.36;101253.59;4778664;29;20078;-37
2021/07/15 06:36:12;;;;;;;54.08;26.88;;;;;;;19.89;93.09;101244.06;4773685;29;20157;-37
2021/07/15 06:38:39;;;;;;;53.42;24.15;;;;;;;19.77;93.39;101240.31;4776550;29;20959;-37
2021/07/15 06:41:08;;;;;;;48.88;25.02;;;;;;;19.67;95.25;101257.44;4763932;29;20150;-37
2021/07/15 06:43:35;;;;;;;48.28;24.52;;;;;;;20.17;92.77;101259.97;4768882;29;20055;-37
2021/07/15 06:46:02;;;;;;;40.73;22.13;;;;;;;20.40;90.19;101256.13;4767856;29;20167;-37
2021/07/15 06:48:29;;;;;;;45.90;23.02;;;;;;;19.80;92.91;101269.19;4763559;29;20354;-37
2021/07/15 06:50:55;;;;;;;37.35;20.40;;;;;;;19.95;92.47;101262.75;4768629;29;20057;-37
2021/07/15 06:53:22;;;;;;;40.80;20.55;;;;;;;20.19;91.70;101271.25;4754935;29;20138;-37
2021/07/15 06:55:49;;;;;;;30.92;16.48;;;;;;;20.33;91.28;101272.94;4781917;29;20050;-37
2021/07/15 06:58:16;;;;;;;26.45;15.30;;;;;;;20.53;89.17;101278.31;4785721;29;20169;-37
2021/07/15 07:00:42;;;;;;;29.50;16.40;;;;;;;20.45;89.56;101283.81;4787925;29;20058;-37
2021/07/15 07:03:12;;;;;;;21.77;13.90;;;;;;;20.23;91.36;101279.63;4788454;29;20042;-37
2021/07/15 07:05:39;;;;;;;21.95;12.23;;;;;;;20.57;89.84;101278.72;4783233;29;20057;-38
2021/07/15 07:08:07;;;;;;;18.70;9.98;;;;;;;20.69;87.55;101277.13;4788357;29;20223;-37
2021/07/15 07:10:34;;;;;;;;;;;;;;;20.20;91.23;101280.88;4774516;29;20137;-37
2021/07/15 07:13:01;;;;;;;16.45;9.98;;;;;;;20.52;89.70;101279.34;4784118;29;19997;-37
2021/07/15 07:15:27;;;;;;;17.50;11.23;;;;;;;20.61;88.42;101285.31;4776969;29;20066;-37
2021/07/15 07:17:54;;;;;;;15.68;9.90;;;;;;;20.68;87.85;101280.00;4785164;29;20131;-37
2021/07/15 07:20:20;;;;;;;17.58;10.35;;;;;;;20.77;88.17;101289.47;4781168;29;20172;-37
2021/07/15 07:22:49;;;;;;;17.88;10.32;;;;;;;20.32;90.19;101289.91;4791026;29;20141;-37
2021/07/15 07:25:16;;;;;;;19.67;10.30;;;;;;;20.58;88.82;101284.88;4772420;29;20131;-37
2021/07/15 07:27:44;;;;;;;18.38;10.52;;;;;;;20.60;88.24;101286.38;4779624;29;20050;-37
2021/07/15 07:30:13;;;;;;;17.73;9.90;;;;;;;20.65;87.83;101293.75;4776870;29;20090;-37
2021/07/15 07:32:40;;;;;;;22.33;11.52;;;;;;;20.69;87.80;101295.78;4761678;29;20158;-37
2021/07/15 07:35:08;;;;;;;24.60;13.93;;;;;;;20.55;87.77;101307.44;4782567;29;20054;-37
2021/07/15 07:37:34;;;;;;;26.63;14.18;;;;;;;20.66;86.82;101298.03;4760363;29;20062;-37
2021/07/15 07:40:04;;;;;;;25.80;15.25;;;;;;;20.16;89.10;101303.59;4775900;29;20562;-36
2021/07/15 07:42:30;;;;;;;29.60;14.98;;;;;;;19.81;92.48;101314.25;4786705;29;20774;-37
2021/07/15 07:44:57;;;;;;;35.13;15.90;;;;;;;20.17;91.47;101317.72;4764048;29;20061;-37
2021/07/15 07:47:23;;;;;;;29.55;15.75;;;;;;;19.85;92.75;101325.34;4784137;29;20528;-36
2021/07/15 07:49:50;;;;;;;33.97;16.73;;;;;;;19.70;93.99;101331.56;4775007;29;20487;-38
2021/07/15 07:52:16;;;;;;;32.22;16.70;;;;;;;19.56;94.51;101327.16;4775759;29;20126;-36
2021/07/15 07:54:44;;;;;;;32.00;15.82;;;;;;;19.72;93.78;101326.91;4775869;29;20475;-36
2021/07/15 07:57:10;;;;;;;32.50;17.20;;;;;;;19.79;93.30;101329.59;4780482;29;20047;-36
2021/07/15 07:59:37;;;;;;;34.97;18.42;;;;;;;19.89;92.95;101323.94;4781759;29;20290;-37
2021/07/15 08:02:04;;;;;;;29.77;15.77;;;;;;;20.12;90.48;101331.63;4771602;29;20055;-36
2021/07/15 08:04:31;;;;;;;34.03;16.15;;;;;;;20.26;90.07;101320.03;4781259;29;20054;-38
2021/07/15 08:06:57;;;;;;;27.25;13.70;;;;;;;20.46;88.60;101320.09;4785718;29;20097;-37
2021/07/15 08:09:26;;;;;;;30.57;13.60;;;;;;;20.62;87.77;101323.44;4784860;29;20066;-37
2021/07/15 08:11:54;;;;;;;26.38;15.13;;;;;;;20.73;88.54;101318.34;4777793;29;21412;-38
2021/07/15 08:14:22;;;;;;;27.42;15.60;;;;;;;20.69;89.49;101330.44;4778803;29;20452;-37
2021/07/15 08:16:50;;;;;;;26.75;13.00;;;;;;;20.68;87.59;101339.50;4776051;29;20054;-37
2021/07/15 08:19:20;;;;;;;24.10;12.80;;;;;;;20.71;87.59;101336.41;4768613;29;20059;-37
2021/07/15 08:21:46;;;;;;;22.88;12.65;;;;;;;20.63;87.36;101336.59;4779669;29;20516;-38
2021/07/15 08:24:13;;;;;;;22.05;13.00;;;;;;;20.66;87.51;101341.53;4771664;29;20078;-38
2021/07/15 08:26:39;;;;;;;19.00;12.40;;;;;;;20.52;88.17;101345.97;4775429;29;20149;-38
2021/07/15 08:29:06;;;;;;;17.30;11.48;;;;;;;20.61;89.00;101345.81;4759325;29;20057;-38
2021/07/15 08:31:32;;;;;;;19.70;11.13;;;;;;;20.64;88.29;101346.25;4771912;29;20552;-38
2021/07/15 08:33:59;;;;;;;20.60;11.05;;;;;;;20.70;87.85;101349.94;4771613;29;20814;-38
2021/07/15 08:36:28;;;;;;;15.98;10.55;;;;;;;20.55;88.59;101350.06;4771723;29;20516;-38
2021/07/15 08:38:55;;;;;;;18.08;10.43;;;;;;;20.46;88.58;101357.41;4784482;29;20149;-38
2021/07/15 08:41:21;;;;;;;16.50;10.15;;;;;;;20.52;88.54;101350.44;4771865;29;20146;-38
2021/07/15 08:43:49;;;;;;;16.33;10.75;;;;;;;20.52;88.58;101351.28;4765737;29;20082;-38
2021/07/15 08:46:15;;;;;;;21.93;10.87;;;;;;;20.41;88.53;101356.38;4762324;29;20179;-38
2021/07/15 08:48:44;;;;;;;25.17;12.60;;;;;;;20.44;87.92;101367.44;4775276;29;20075;-38
2021/07/15 08:51:11;;;;;;;20.45;12.40;;;;;;;20.45;88.99;101366.44;4771851;29;20145;-38
2021/07/15 08:53:39;;;;;;;27.88;14.02;;;;;;;20.52;88.64;101371.78;4773451;29;20051;-38
2021/07/15 08:58:51;;;;;;;23.58;13.63;;;;;;;20.41;88.40;101372.34;4770895;29;20054;-38
2021/07/15 09:01:18;;;;;;;31.45;13.48;;;;;;;20.39;88.74;101385.88;4772162;29;20149;-37
2021/07/15 09:03:46;;;;;;;33.97;15.48;;;;;;;20.29;88.75;101393.41;4779028;29;20126;-40
2021/07/15 09:06:13;;;;;;;27.77;14.20;;;;;;;20.26;88.80;101394.59;4785613;29;21607;-37
2021/07/15 09:08:40;;;;;;;34.50;16.00;;;;;;;20.28;89.47;101389.09;4761815;29;20577;-37
2021/07/15 09:11:06;;;;;;;34.30;14.90;;;;;;;20.33;89.12;101394.66;4780405;29;20061;-37
2021/07/15 09:13:33;;;;;;;30.77;15.75;;;;;;;20.37;89.13;101390.56;4776354;29;20211;-37
2021/07/15 09:15:59;;;;;;;32.40;15.85;;;;;;;20.29;88.64;101399.56;4781657;29;20055;-37
2021/07/15 09:18:26;;;;;;;28.52;14.38;;;;;;;20.34;88.88;101397.09;4777374;29;20046;-37
2021/07/15 09:20:53;;;;;;;36.83;14.63;;;;;;;20.40;89.28;101400.00;4769919;29;20077;-36
2021/07/15 09:23:19;;;;;;;33.50;14.98;;;;;;;20.38;88.77;101412.72;4784111;29;20493;-36
2021/07/15 09:25:46;;;;;;;30.85;13.85;;;;;;;20.29;89.74;101414.72;4772752;29;20156;-36
2021/07/15 09:28:15;;;;;;;32.03;15.13;;;;;;;20.05;90.84;101416.81;4774855;29;20046;-36
2021/07/15 09:30:42;;;;;;;35.03;16.17;;;;;;;20.04;90.32;101415.16;4768490;29;20419;-36
2021/07/15 09:33:12;;;;;;;37.22;15.27;;;;;;;19.95;91.41;101414.50;4776135;29;20141;-36
2021/07/15 09:35:40;;;;;;;35.55;16.00;;;;;;;19.95;91.21;101414.50;4766737;29;21109;-36
2021/07/15 09:38:21;;;;;;;41.40;16.83;;;;;;;19.94;91.55;101412.03;4775382;29;20391;-36
2021/07/15 09:41:01;;;;;;;40.17;17.13;;;;;;;19.94;91.97;101417.34;4763240;29;20112;-36
2021/07/15 09:43:30;;;;;;;37.45;15.35;;;;;;;19.87;91.72;101417.28;4772961;29;20491;-36
2021/07/15 09:46:14;;;;;;;40.42;16.70;;;;;;;19.95;92.29;101417.16;4776202;29;20050;-36
2021/07/15 09:48:43;;;;;;;35.45;16.25;;;;;;;19.84;91.80;101415.03;4765929;29;20072;-36
2021/07/15 09:51:12;;;;;;;32.63;16.05;;;;;;;19.93;92.92;101415.69;4764990;29;20050;-37
2021/07/15 09:53:41;;;;;;;32.78;16.95;;;;;;;19.91;91.92;101425.72;4766354;29;20055;-37
2021/07/15 09:56:08;;;;;;;;;;;;;;;19.79;92.20;101421.94;4777508;29;20065;-37
2021/07/15 09:58:42;;;;;;;37.30;16.25;;;;;;;19.75;92.66;101419.66;4763409;29;19932;-37
2021/07/15 10:01:20;;;;;;;35.00;17.08;;;;;;;19.78;92.11;101417.63;4770236;29;21036;-37
2021/07/15 10:03:48;;;;;;;36.17;17.58;;;;;;;19.75;93.15;101422.31;4759474;29;20055;-37
2021/07/15 10:06:16;;;;;;;34.10;16.60;;;;;;;19.86;92.75;101425.50;4779292;29;20117;-37
2021/07/15 10:08:44;;;;;;;42.40;18.05;;;;;;;19.73;93.82;101423.53;4781971;29;20055;-37
2021/07/15 10:11:30;;;;;;;31.23;16.95;;;;;;;19.80;94.19;101427.09;4769917;29;20078;-37
2021/07/15 10:14:00;;;;;;;34.55;16.92;;;;;;;19.83;92.47;101432.00;4776627;29;20138;-37
2021/07/15 10:16:29;;;;;;;35.78;17.52;;;;;;;19.81;93.13;101439.38;4767238;29;20062;-37
2021/07/15 10:18:56;;;;;;;34.10;17.60;;;;;;;19.81;93.23;101444.69;4781055;29;20469;-37
2021/07/15 10:21:26;;;;;;;35.72;18.40;;;;;;;19.79;93.80;101443.25;4773143;29;20166;-37
2021/07/15 10:23:53;;;;;;;25.77;14.77;;;;;;;19.87;92.55;101443.09;4774537;29;20059;-37
2021/07/15 10:26:27;;;;;;;28.10;15.23;;;;;;;20.02;92.23;101443.84;4764523;29;20058;-37
2021/07/15 10:28:54;;;;;;;29.23;14.02;;;;;;;20.05;91.23;101440.78;4768616;29;21120;-37
2021/07/15 10:31:23;;;;;;;28.30;14.38;;;;;;;20.11;90.83;101450.66;4767353;29;20150;-37
2021/07/15 10:33:52;;;;;;;23.75;13.48;;;;;;;20.18;90.61;101445.38;4766797;29;20050;-37
2021/07/15 10:36:20;;;;;;;32.13;16.27;;;;;;;20.07;91.19;101456.56;4764246;29;20575;-37
2021/07/15 10:38:51;;;;;;;28.75;15.40;;;;;;;20.22;90.45;101454.63;4773913;29;20115;-38
2021/07/15 10:41:21;;;;;;;27.65;14.77;;;;;;;20.18;89.90;101449.88;4764911;29;20581;-37
2021/07/15 10:43:49;;;;;;;25.13;13.45;;;;;;;20.17;89.95;101453.56;4756869;29;20396;-37
2021/07/15 10:46:17;;;;;;;;;;;;;;;20.30;89.91;101458.97;4764429;29;20051;-37
2021/07/15 10:48:47;;;;;;;23.90;13.20;;;;;;;20.30;89.38;101459.78;4754923;29;19944;-37
2021/07/15 10:51:14;;;;;;;23.38;13.70;;;;;;;20.33;89.29;101471.91;4764534;29;20134;-37
2021/07/15 10:53:42;;;;;;;22.85;12.40;;;;;;;20.24;87.78;101460.56;4770148;29;20065;-37
2021/07/15 10:56:09;;;;;;;22.38;12.32;;;;;;;20.28;88.28;101466.34;4762602;29;20404;-37
2021/07/15 10:58:50;;;;;;;23.35;11.75;;;;;;;20.26;88.74;101463.88;4777041;29;20065;-37
2021/07/15 11:01:32;;;;;;;19.08;10.85;;;;;;;20.31;88.00;101468.63;4773763;29;20159;-37
2021/07/15 11:04:16;;;;;;;18.88;12.50;;;;;;;20.32;88.53;101475.59;4778706;29;20058;-37
2021/07/15 11:06:48;;;;;;;20.25;11.80;;;;;;;20.31;88.19;101473.94;4772630;29;20055;-37
2021/07/15 11:09:33;;;;;;;24.52;11.50;;;;;;;20.40;89.02;101478.09;4775216;29;20055;-37
2021/07/15 11:12:02;;;;;;;23.13;11.27;;;;;;;20.44;88.07;101471.34;4767658;29;20149;-38
2021/07/15 11:14:37;;;;;;;21.17;10.70;;;;;;;20.49;88.66;101473.44;4779439;29;20474;-37
2021/07/15 11:17:30;;;;;;;14.35;8.65;;;;;;;20.39;89.18;101475.66;4770542;29;20655;-38
2021/07/15 11:20:15;;;;;;;13.93;8.13;;;;;;;20.09;90.67;101475.81;4765888;29;20111;-38
2021/07/15 11:22:46;;;;;;;17.83;9.32;;;;;;;20.37;88.59;101475.84;4768565;29;20205;-37
2021/07/15 11:25:16;;;;;;;13.90;9.27;;;;;;;20.46;88.39;101474.63;4769901;29;20051;-38